메인 페이지
METAR-TAF:

METAR-TAF

공항 :

몽고메리, 앨라배마, 미국

위도: 32-18-01N, 경도: 086-24-22W, 고도: 67m

현재 날씨관측

예보는 39분 전, 09:10시(UTC)에 발표되었습니다.
3kt
온도 23°C
습도 94%
기압 1012 hPa
시정: 16.1km
고도 600ft 상공 구름 조금
고도 2000ft 상공 구름 보통

METAR: KMGM 190910Z AUTO 18003KT 10SM FEW006 SCT020 23/22 A2989 RMK AO2 T02280217

시각: 04:49 (09:49 UTC)

예보

예보는 4 시간 24분 전, 05:25시(UTC)에 발표되었습니다.
예보 대상 시간: 19일 06시부터 20일 06시까지 (UTC)
4kt
시정: 10km
고도 800ft 상공 구름 조금
고도 25000ft 상공 구름 많음
일시적
19일 07시부터 19일 09시까지 (UTC)
고도 800ft 상공 구름 많음
고도 1500ft 상공 흐림
19일 0900시부터 (UTC)
4kt
시정: 10km
고도 500ft 상공 흐림
19일 1400시부터 (UTC)
남서6kt
시정: 10km
고도 1200ft 상공 구름 많음
19일 1600시부터 (UTC)
서남서10kt
시정: 10km
고도 2000ft 상공 구름 보통
고도 5000ft 상공 구름 많음
확률 30%
19일 17시부터 19일 21시까지 (UTC)
시정: 3.2km
고도 3000ft 상공 구름 많음, 적란운.
뇌우, 비
19일 2300시부터 (UTC)
남서6kt
시정: 10km
고도 5000ft 상공 구름 많음

TAF: KMGM 190525Z 1906/2006 19004KT P6SM FEW008 BKN250 TEMPO 1907/1909 BKN008 OVC015 FM190900 19004KT P6SM OVC005 FM191400 23006KT P6SM BKN012 FM191600 25010KT P6SM SCT020 BKN050 PROB30 1917/1921 2SM TSRA BKN030CB FM192300 23006KT P6SM BKN050

4,000개 이상의 공항 관측 자료 및 예보 (METAR 및 TAF 보고).

지도상에서 검색 가능한 기상관측소가 노란 점과 빨간 점으로 표시되어 있습니다.

기상관측소 명을 보려면 표시 위로 마우스를 이동하세요.

날씨 관측과 예보를 보려면 클릭하세요.

지도 변경 : 확대하려면 엑스 표시가 있는 녹색 버튼, 축소하려면 빼기 표시가 있는 녹색 버튼, 다음 페이지의 지도를 보려면 녹색 화살표를 클릭하세요.


METAR-TAF: